createdAt,value
2023-02-14T00:01:29.422Z,1.50
2023-02-14T00:04:17.247Z,1.50
2023-02-14T00:07:03.366Z,1.50
2023-02-14T00:09:49.205Z,1.40
2023-02-14T00:12:35.449Z,1.50
2023-02-14T00:15:25.061Z,1.60
2023-02-14T00:18:10.932Z,1.60
2023-02-14T00:21:00.592Z,1.60
2023-02-14T00:23:47.024Z,1.60
2023-02-14T00:26:33.273Z,1.50
2023-02-14T00:29:30.947Z,1.40
2023-02-14T00:32:16.690Z,1.40
2023-02-14T00:35:04.758Z,1.40
2023-02-14T00:37:51.526Z,1.40
2023-02-14T00:40:38.936Z,1.40
2023-02-14T00:43:25.138Z,1.40
2023-02-14T00:46:11.675Z,1.40
2023-02-14T00:48:58.114Z,1.40
2023-02-14T00:51:44.267Z,1.40
2023-02-14T00:54:30.323Z,1.40
2023-02-14T00:57:18.110Z,1.40
2023-02-14T01:00:04.891Z,1.30
2023-02-14T01:02:51.057Z,1.30
2023-02-14T01:05:36.917Z,1.30
2023-02-14T01:08:24.030Z,1.30
2023-02-14T01:11:17.141Z,1.20
2023-02-14T01:14:06.000Z,1.20
2023-02-14T01:16:51.896Z,1.20
2023-02-14T01:19:38.646Z,1.20
2023-02-14T01:22:26.142Z,1.20
2023-02-14T01:25:11.959Z,1.30
2023-02-14T01:27:58.300Z,1.30
2023-02-14T01:30:44.458Z,1.30
2023-02-14T01:33:30.282Z,1.30
2023-02-14T01:36:28.652Z,1.30
2023-02-14T01:39:16.019Z,1.40
2023-02-14T01:42:04.753Z,1.40
2023-02-14T01:45:00.308Z,1.40
2023-02-14T01:47:51.648Z,1.20
2023-02-14T01:50:43.224Z,1.20
2023-02-14T01:53:29.620Z,1.20
2023-02-14T01:56:26.919Z,1.20
2023-02-14T01:59:18.170Z,1.20
2023-02-14T02:02:05.479Z,1.30
2023-02-14T02:04:55.055Z,1.30
2023-02-14T02:07:44.603Z,1.30
2023-02-14T02:10:30.445Z,1.20
2023-02-14T02:13:19.688Z,1.20
2023-02-14T02:16:47.346Z,1.10
2023-02-14T02:20:27.232Z,1.10
2023-02-14T02:23:25.324Z,1.10
2023-02-14T02:26:25.447Z,1.10
2023-02-14T02:29:49.419Z,1.00
2023-02-14T02:32:52.735Z,0.90
2023-02-14T02:35:50.926Z,0.80
2023-02-14T02:38:36.679Z,0.90
2023-02-14T02:41:52.784Z,0.90
2023-02-14T02:44:59.751Z,1.00
2023-02-14T02:47:53.009Z,0.90
2023-02-14T02:51:01.814Z,0.70
2023-02-14T02:54:23.619Z,0.70
2023-02-14T02:57:18.913Z,0.60
2023-02-14T03:00:07.664Z,0.60
2023-02-14T03:03:16.718Z,0.70
2023-02-14T03:06:03.072Z,0.70
2023-02-14T03:08:49.003Z,0.80
2023-02-14T03:11:37.840Z,0.90
2023-02-14T03:14:41.024Z,0.80
2023-02-14T03:17:50.446Z,0.80
2023-02-14T03:20:59.885Z,0.70
2023-02-14T03:24:09.395Z,0.70
2023-02-14T03:27:21.862Z,0.60
2023-02-14T03:30:36.626Z,0.60
2023-02-14T03:33:30.460Z,0.60
2023-02-14T03:36:27.501Z,0.60
2023-02-14T03:39:25.078Z,0.60
2023-02-14T03:42:26.587Z,0.50
2023-02-14T03:45:33.252Z,0.50
2023-02-14T03:48:24.068Z,0.50
2023-02-14T03:51:14.003Z,0.60
2023-02-14T03:54:02.092Z,0.60
2023-02-14T03:57:18.217Z,0.50
2023-02-14T04:00:05.268Z,0.40
2023-02-14T04:03:04.883Z,0.50
2023-02-14T04:05:52.513Z,0.50
2023-02-14T04:08:38.643Z,0.60
2023-02-14T04:11:24.924Z,0.50
2023-02-14T04:14:10.807Z,0.50
2023-02-14T04:17:15.332Z,0.50
2023-02-14T04:20:01.544Z,0.40
2023-02-14T04:22:47.758Z,0.50
2023-02-14T04:25:33.832Z,0.60
2023-02-14T04:28:19.730Z,0.60
2023-02-14T04:31:06.786Z,0.60
2023-02-14T04:33:52.850Z,0.40
2023-02-14T04:36:38.931Z,0.40
2023-02-14T04:39:24.763Z,0.20
2023-02-14T04:42:10.815Z,0.20
2023-02-14T04:44:56.844Z,0.20
2023-02-14T04:47:42.797Z,0.20
2023-02-14T04:50:28.837Z,0.30
2023-02-14T04:53:14.660Z,0.30
2023-02-14T04:56:00.743Z,0.20
2023-02-14T04:58:46.740Z,0.10
2023-02-14T05:01:32.727Z,0.00
2023-02-14T05:04:18.706Z,0.10
2023-02-14T05:07:04.752Z,0.00
2023-02-14T05:09:50.720Z,0.10
2023-02-14T05:12:36.608Z,0.30
2023-02-14T05:15:22.485Z,0.40
2023-02-14T05:18:08.477Z,0.50
2023-02-14T05:20:55.427Z,0.50
2023-02-14T05:23:41.310Z,0.50
2023-02-14T05:26:28.016Z,0.60
2023-02-14T05:29:14.407Z,0.50
2023-02-14T05:32:00.287Z,0.50
2023-02-14T05:34:46.688Z,0.60
2023-02-14T05:37:32.695Z,0.60
2023-02-14T05:40:19.805Z,0.60
2023-02-14T05:43:06.338Z,0.60
2023-02-14T05:45:54.229Z,0.60
2023-02-14T05:48:40.637Z,0.60
2023-02-14T05:51:26.585Z,0.60
2023-02-14T05:54:12.882Z,0.60
2023-02-14T05:56:59.207Z,0.60
2023-02-14T05:59:45.313Z,0.50
2023-02-14T06:02:31.435Z,0.50
2023-02-14T06:05:18.350Z,0.60
2023-02-14T06:08:04.325Z,0.60
2023-02-14T06:10:50.329Z,0.60
2023-02-14T06:13:36.295Z,0.50
2023-02-14T06:16:22.274Z,0.50
2023-02-14T06:19:08.294Z,0.50
2023-02-14T06:21:54.389Z,0.40
2023-02-14T06:24:40.583Z,0.30
2023-02-14T06:27:26.571Z,0.20
2023-02-14T06:30:13.540Z,0.20
2023-02-14T06:32:59.654Z,0.20
2023-02-14T06:35:45.820Z,0.20
2023-02-14T06:38:31.839Z,0.40
2023-02-14T06:41:17.726Z,0.40
2023-02-14T06:44:03.845Z,0.40
2023-02-14T06:46:49.740Z,0.50
2023-02-14T06:49:35.887Z,0.50
2023-02-14T06:52:21.915Z,0.50
2023-02-14T06:55:08.461Z,0.40
2023-02-14T06:57:54.638Z,0.40
2023-02-14T07:00:40.606Z,0.60
2023-02-14T07:03:27.656Z,0.60
2023-02-14T07:06:13.862Z,0.80
2023-02-14T07:08:59.797Z,0.80
2023-02-14T07:11:45.842Z,0.80
2023-02-14T07:14:31.820Z,0.80
2023-02-14T07:17:17.772Z,0.90
2023-02-14T07:20:04.305Z,0.80
2023-02-14T07:22:50.553Z,0.90
2023-02-14T07:25:36.578Z,0.90
2023-02-14T07:28:22.500Z,0.90
2023-02-14T07:31:08.713Z,0.90
2023-02-14T07:33:54.829Z,0.80
2023-02-14T07:36:41.026Z,0.80
2023-02-14T07:39:27.682Z,0.80
2023-02-14T07:42:13.893Z,0.80
2023-02-14T07:45:03.157Z,0.80
2023-02-14T07:47:55.004Z,0.80
2023-02-14T07:50:41.316Z,0.80
2023-02-14T07:53:27.337Z,0.70
2023-02-14T07:56:13.387Z,0.80
2023-02-14T07:58:59.568Z,1.00
2023-02-14T08:01:45.797Z,1.00
2023-02-14T08:04:33.576Z,1.10
2023-02-14T08:07:20.452Z,1.20
2023-02-14T08:10:07.108Z,1.20
2023-02-14T08:12:59.243Z,1.30
2023-02-14T08:16:04.106Z,1.30
2023-02-14T08:18:50.170Z,1.30
2023-02-14T08:21:36.422Z,1.20
2023-02-14T08:24:22.313Z,1.30
2023-02-14T08:27:08.110Z,1.30
2023-02-14T08:29:54.081Z,1.40
2023-02-14T08:32:40.248Z,1.50
2023-02-14T08:35:26.683Z,1.50
2023-02-14T08:38:13.044Z,1.40
2023-02-14T08:41:05.239Z,1.40
2023-02-14T08:43:52.891Z,1.50
2023-02-14T08:46:39.011Z,1.60
2023-02-14T08:49:24.761Z,1.50
2023-02-14T08:52:11.467Z,1.50
2023-02-14T08:54:58.018Z,1.70
2023-02-14T08:57:44.271Z,1.70
2023-02-14T09:00:31.058Z,1.70
2023-02-14T09:03:17.026Z,1.80
2023-02-14T09:06:04.712Z,1.80
2023-02-14T09:08:51.828Z,1.90
2023-02-14T09:11:37.928Z,1.90
2023-02-14T09:14:24.441Z,2.00
2023-02-14T09:17:11.934Z,2.00
2023-02-14T09:19:58.210Z,2.00
2023-02-14T09:22:44.543Z,2.00
2023-02-14T09:25:30.632Z,1.90
2023-02-14T09:28:16.880Z,1.90
2023-02-14T09:31:13.236Z,1.70
2023-02-14T09:33:59.775Z,1.70
2023-02-14T09:36:45.744Z,1.80
2023-02-14T09:39:31.569Z,2.00
2023-02-14T09:42:34.142Z,2.10
2023-02-14T09:45:24.971Z,2.20
2023-02-14T09:48:26.093Z,2.20
2023-02-14T09:51:25.499Z,2.30
2023-02-14T09:54:21.934Z,2.50
2023-02-14T09:57:22.922Z,2.60
2023-02-14T10:00:27.132Z,2.70
2023-02-14T10:03:48.705Z,2.60
2023-02-14T10:06:45.875Z,2.60
2023-02-14T10:09:47.187Z,2.60
2023-02-14T10:12:59.574Z,2.50
2023-02-14T10:15:52.961Z,2.70
2023-02-14T10:18:38.707Z,2.70
2023-02-14T10:21:31.284Z,2.70
2023-02-14T10:24:23.297Z,2.70
2023-02-14T10:27:32.497Z,2.70
2023-02-14T10:30:23.801Z,3.10
2023-02-14T10:33:18.614Z,3.20
2023-02-14T10:36:26.731Z,3.30
2023-02-14T10:39:40.822Z,3.40
2023-02-14T10:42:42.128Z,3.50
2023-02-14T10:45:41.825Z,3.70
2023-02-14T10:48:38.205Z,3.90
2023-02-14T10:51:39.141Z,3.80
2023-02-14T10:54:28.954Z,3.80
2023-02-14T10:57:34.306Z,3.80
2023-02-14T11:00:20.319Z,3.90
2023-02-14T11:03:09.494Z,3.90
2023-02-14T11:05:55.871Z,3.80
2023-02-14T11:08:42.130Z,3.70
2023-02-14T11:11:41.174Z,3.50
2023-02-14T11:14:32.402Z,3.60
2023-02-14T11:17:29.815Z,3.80
2023-02-14T11:20:19.909Z,4.00
2023-02-14T11:23:21.518Z,4.20
2023-02-14T11:26:25.506Z,4.40
2023-02-14T11:29:21.783Z,4.50
2023-02-14T11:32:25.157Z,4.50
2023-02-14T11:35:20.597Z,4.50
2023-02-14T11:38:24.680Z,4.80
2023-02-14T11:41:13.708Z,5.20
2023-02-14T11:44:15.681Z,5.20
2023-02-14T11:47:24.657Z,5.20
2023-02-14T11:50:24.838Z,5.30
2023-02-14T11:53:13.010Z,5.50
2023-02-14T11:56:00.763Z,5.70
2023-02-14T11:58:55.872Z,6.20
2023-02-14T12:01:45.512Z,6.30
2023-02-14T12:04:46.148Z,6.30
2023-02-14T12:07:45.189Z,6.00
2023-02-14T12:10:36.248Z,5.90
2023-02-14T12:13:26.017Z,5.70
2023-02-14T12:16:30.041Z,5.60
2023-02-14T12:19:31.887Z,5.80
2023-02-14T12:22:28.302Z,5.90
2023-02-14T12:25:25.551Z,6.20
2023-02-14T12:28:20.628Z,6.20
2023-02-14T12:31:11.672Z,6.30
2023-02-14T12:33:57.881Z,6.40
2023-02-14T12:37:15.184Z,6.70
2023-02-14T12:40:28.028Z,7.30
2023-02-14T12:43:32.444Z,8.10
2023-02-14T12:46:39.606Z,9.20
2023-02-14T12:49:38.287Z,9.90
2023-02-14T12:52:52.770Z,10.00
2023-02-14T12:56:14.857Z,9.70
2023-02-14T12:59:13.348Z,9.30
2023-02-14T13:02:34.624Z,9.30
2023-02-14T13:05:32.166Z,9.80
2023-02-14T13:09:01.254Z,11.60
2023-02-14T13:12:16.680Z,12.60
2023-02-14T13:15:11.674Z,13.90
2023-02-14T13:18:10.308Z,14.60
2023-02-14T13:21:00.058Z,15.00
2023-02-14T13:23:55.080Z,15.10
2023-02-14T13:26:44.407Z,14.90
2023-02-14T13:29:57.747Z,14.70
2023-02-14T13:32:46.904Z,14.70
2023-02-14T13:35:33.538Z,15.10
2023-02-14T13:38:20.762Z,15.00
2023-02-14T13:41:09.424Z,15.30
2023-02-14T13:43:57.118Z,15.80
2023-02-14T13:46:51.469Z,16.00
2023-02-14T13:49:40.461Z,15.70
2023-02-14T13:52:42.993Z,15.40
2023-02-14T13:55:34.911Z,15.60
2023-02-14T13:58:21.828Z,16.00
2023-02-14T14:01:36.976Z,15.30
2023-02-14T14:04:30.173Z,14.80
2023-02-14T14:07:19.016Z,14.80
2023-02-14T14:10:06.009Z,14.60
2023-02-14T14:12:53.579Z,14.00
2023-02-14T14:16:18.125Z,14.00
2023-02-14T14:19:16.188Z,14.60
2023-02-14T14:22:05.875Z,14.90
2023-02-14T14:24:54.710Z,14.70
2023-02-14T14:27:47.423Z,14.50
2023-02-14T14:30:33.577Z,13.60
2023-02-14T14:33:29.035Z,12.90
2023-02-14T14:36:23.105Z,12.70
2023-02-14T14:39:10.605Z,13.00
2023-02-14T14:42:07.055Z,13.50
2023-02-14T14:44:56.604Z,13.20
2023-02-14T14:47:45.416Z,12.60
2023-02-14T14:50:35.395Z,11.80
2023-02-14T14:53:34.581Z,11.80
2023-02-14T14:56:25.023Z,11.90
2023-02-14T14:59:28.899Z,11.30
2023-02-14T15:02:27.040Z,10.60
2023-02-14T15:05:27.321Z,10.10
2023-02-14T15:08:32.219Z,9.30
2023-02-14T15:11:46.538Z,9.20
2023-02-14T15:14:37.328Z,9.50
2023-02-14T15:17:29.507Z,9.40
2023-02-14T15:20:23.093Z,8.80
2023-02-14T15:23:21.641Z,8.30
2023-02-14T15:26:07.503Z,7.70
2023-02-14T15:28:59.609Z,7.10
2023-02-14T15:31:46.356Z,6.80
2023-02-14T15:34:38.148Z,6.70
2023-02-14T15:37:25.317Z,6.60
2023-02-14T15:40:24.497Z,6.50
2023-02-14T15:43:25.090Z,6.20
2023-02-14T15:46:35.655Z,6.20
2023-02-14T15:49:24.330Z,6.20
2023-02-14T15:52:16.196Z,6.00
2023-02-14T15:55:02.687Z,5.80
2023-02-14T15:57:55.551Z,5.50
2023-02-14T16:00:43.171Z,5.20
2023-02-14T16:03:35.980Z,4.90
2023-02-14T16:06:39.772Z,4.60
2023-02-14T16:09:28.606Z,4.30
2023-02-14T16:12:36.799Z,4.20
2023-02-14T16:15:26.580Z,4.00
2023-02-14T16:18:32.623Z,4.00
2023-02-14T16:21:19.083Z,3.90
2023-02-14T16:24:10.680Z,3.90
2023-02-14T16:26:58.120Z,3.90
2023-02-14T16:29:44.255Z,3.80
2023-02-14T16:32:30.801Z,3.90
2023-02-14T16:35:21.054Z,3.80
2023-02-14T16:38:11.756Z,3.60
2023-02-14T16:40:57.965Z,3.50
2023-02-14T16:43:44.788Z,3.50
2023-02-14T16:46:35.109Z,3.40
2023-02-14T16:49:22.986Z,3.30
2023-02-14T16:52:20.726Z,3.30
2023-02-14T16:55:16.398Z,3.20
2023-02-14T16:58:03.513Z,3.00
2023-02-14T17:00:49.610Z,3.10
2023-02-14T17:03:35.494Z,3.10
2023-02-14T17:06:27.605Z,3.00
2023-02-14T17:09:16.309Z,2.90
2023-02-14T17:12:05.474Z,2.80
2023-02-14T17:14:56.104Z,2.60
2023-02-14T17:17:42.907Z,2.60
2023-02-14T17:20:29.706Z,2.80
2023-02-14T17:23:15.757Z,2.90
2023-02-14T17:26:02.032Z,2.80
2023-02-14T17:28:48.152Z,2.70
2023-02-14T17:31:35.298Z,2.60
2023-02-14T17:34:21.698Z,2.60
2023-02-14T17:37:08.688Z,2.60
2023-02-14T17:39:55.191Z,2.60
2023-02-14T17:42:41.819Z,2.80
2023-02-14T17:45:28.151Z,2.70
2023-02-14T17:48:14.245Z,2.60
2023-02-14T17:51:09.000Z,2.60
2023-02-14T17:53:56.544Z,2.60
2023-02-14T17:56:43.950Z,2.60
2023-02-14T17:59:31.391Z,2.60
2023-02-14T18:02:17.332Z,2.50
2023-02-14T18:05:03.596Z,2.30
2023-02-14T18:07:51.508Z,2.20
2023-02-14T18:10:37.985Z,2.10
2023-02-14T18:13:25.399Z,2.10
2023-02-14T18:16:14.661Z,2.00
2023-02-14T18:19:05.152Z,2.10
2023-02-14T18:21:51.362Z,2.20
2023-02-14T18:24:37.178Z,2.20
2023-02-14T18:27:23.278Z,2.20
2023-02-14T18:30:09.695Z,2.20
2023-02-14T18:32:55.848Z,2.20
2023-02-14T18:35:41.943Z,2.30
2023-02-14T18:38:28.195Z,2.10
2023-02-14T18:41:16.879Z,2.00
2023-02-14T18:44:03.683Z,1.80
2023-02-14T18:46:49.509Z,1.80
2023-02-14T18:49:35.580Z,1.70
2023-02-14T18:52:21.531Z,1.70
2023-02-14T18:55:08.273Z,1.70
2023-02-14T18:57:54.600Z,1.70
2023-02-14T19:00:40.589Z,1.80
2023-02-14T19:03:26.573Z,1.80
2023-02-14T19:06:13.597Z,1.80
2023-02-14T19:08:59.908Z,1.80
2023-02-14T19:11:46.889Z,1.80
2023-02-14T19:14:32.947Z,1.80
2023-02-14T19:17:19.133Z,1.80
2023-02-14T19:20:08.554Z,1.80
2023-02-14T19:22:54.815Z,1.80
2023-02-14T19:25:41.295Z,1.70
2023-02-14T19:28:28.107Z,1.60
2023-02-14T19:31:15.283Z,1.60
2023-02-14T19:34:02.157Z,1.60
2023-02-14T19:36:49.089Z,1.70
2023-02-14T19:39:35.221Z,1.70
2023-02-14T19:42:21.233Z,1.80
2023-02-14T19:45:07.592Z,1.80
2023-02-14T19:47:53.693Z,1.80
2023-02-14T19:50:39.884Z,1.70
2023-02-14T19:53:26.320Z,1.60
2023-02-14T19:56:13.006Z,1.60
2023-02-14T19:58:59.744Z,1.70
2023-02-14T20:01:48.602Z,1.60
2023-02-14T20:04:34.696Z,1.60
2023-02-14T20:07:20.559Z,1.60
2023-02-14T20:10:07.041Z,1.60
2023-02-14T20:12:53.184Z,1.60
2023-02-14T20:15:40.019Z,1.60
2023-02-14T20:18:26.193Z,1.70
2023-02-14T20:21:18.342Z,1.70
2023-02-14T20:24:05.388Z,1.60
2023-02-14T20:26:53.299Z,1.60
2023-02-14T20:29:43.047Z,1.70
2023-02-14T20:32:29.108Z,1.70
2023-02-14T20:35:15.088Z,1.60
2023-02-14T20:38:00.983Z,1.60
2023-02-14T20:40:46.975Z,1.40
2023-02-14T20:43:33.587Z,1.50
2023-02-14T20:46:20.045Z,1.40
2023-02-14T20:49:06.480Z,1.30
2023-02-14T20:51:53.065Z,1.30
2023-02-14T20:54:39.587Z,1.20
2023-02-14T20:57:25.517Z,1.30
2023-02-14T21:00:12.052Z,1.30
2023-02-14T21:02:57.992Z,1.30
2023-02-14T21:05:47.403Z,1.30
2023-02-14T21:08:33.865Z,1.40
2023-02-14T21:11:22.599Z,1.30
2023-02-14T21:14:08.608Z,1.30
2023-02-14T21:16:54.652Z,1.30
2023-02-14T21:19:40.953Z,1.30
2023-02-14T21:22:27.255Z,1.30
2023-02-14T21:25:13.180Z,1.30
2023-02-14T21:27:59.140Z,1.30
2023-02-14T21:30:45.226Z,1.40
2023-02-14T21:33:32.921Z,1.30
2023-02-14T21:36:20.872Z,1.20
2023-02-14T21:39:07.880Z,1.30
2023-02-14T21:41:54.767Z,1.30
2023-02-14T21:44:59.544Z,1.40
2023-02-14T21:48:05.398Z,1.40
2023-02-14T21:50:51.159Z,1.50
2023-02-14T21:53:37.207Z,1.50
2023-02-14T21:56:23.880Z,1.50
2023-02-14T21:59:10.151Z,1.50
2023-02-14T22:01:56.261Z,1.60
2023-02-14T22:04:44.231Z,1.50
2023-02-14T22:07:30.458Z,1.50
2023-02-14T22:10:16.681Z,1.40
2023-02-14T22:13:03.081Z,1.40
2023-02-14T22:15:49.702Z,1.30
2023-02-14T22:18:36.192Z,1.30
2023-02-14T22:21:24.949Z,1.30
2023-02-14T22:24:10.843Z,1.30
2023-02-14T22:26:56.887Z,1.20
2023-02-14T22:29:43.196Z,1.20
2023-02-14T22:32:29.324Z,1.20
2023-02-14T22:35:15.466Z,1.20
2023-02-14T22:38:01.694Z,1.10
2023-02-14T22:40:47.618Z,1.10
2023-02-14T22:43:34.374Z,1.00
2023-02-14T22:46:26.609Z,0.90
2023-02-14T22:49:12.975Z,0.80
2023-02-14T22:51:59.094Z,0.80
2023-02-14T22:54:44.994Z,0.80
2023-02-14T22:57:31.945Z,0.90
2023-02-14T23:00:18.013Z,0.90
2023-02-14T23:03:04.494Z,0.90
2023-02-14T23:05:59.380Z,0.90
2023-02-14T23:08:47.223Z,1.00
2023-02-14T23:11:35.240Z,0.90
2023-02-14T23:14:40.106Z,1.00
2023-02-14T23:17:26.209Z,1.00
2023-02-14T23:20:30.524Z,0.80
2023-02-14T23:23:16.410Z,0.80
2023-02-14T23:26:02.731Z,0.70
2023-02-14T23:28:48.976Z,0.70
2023-02-14T23:31:35.136Z,0.80
2023-02-14T23:34:25.978Z,0.70
2023-02-14T23:37:13.702Z,0.70
2023-02-14T23:39:59.957Z,0.70
2023-02-14T23:42:45.836Z,0.70
2023-02-14T23:45:34.626Z,0.70
2023-02-14T23:48:20.943Z,0.70
2023-02-14T23:51:06.835Z,0.60
2023-02-14T23:53:54.320Z,0.70
2023-02-14T23:56:40.771Z,0.70
2023-02-14T23:59:27.298Z,0.70
